sensor_id;sensor_type;location;lat;lon;timestamp;pressure;altitude;pressure_sealevel;temperature;humidity
51715;BME280;39115;59.332;18.034;2023-03-31T00:00:29;100143.63;;;1.11;59.55
51715;BME280;39115;59.332;18.034;2023-03-31T00:02:50;100135.84;;;1.09;60.00
51715;BME280;39115;59.332;18.034;2023-03-31T00:05:13;100142.03;;;1.08;59.87
51715;BME280;39115;59.332;18.034;2023-03-31T00:07:37;100140.25;;;1.09;59.87
51715;BME280;39115;59.332;18.034;2023-03-31T00:09:57;100137.47;;;1.12;59.92
51715;BME280;39115;59.332;18.034;2023-03-31T00:12:21;100139.88;;;1.15;59.85
51715;BME280;39115;59.332;18.034;2023-03-31T00:14:42;100131.94;;;1.17;59.90
51715;BME280;39115;59.332;18.034;2023-03-31T00:17:03;100132.78;;;1.17;59.79
51715;BME280;39115;59.332;18.034;2023-03-31T00:19:23;100132.78;;;1.17;59.98
51715;BME280;39115;59.332;18.034;2023-03-31T00:21:45;100132.78;;;1.17;59.81
51715;BME280;39115;59.332;18.034;2023-03-31T00:24:06;100126.03;;;1.13;59.65
51715;BME280;39115;59.332;18.034;2023-03-31T00:26:27;100130.34;;;1.14;59.92
51715;BME280;39115;59.332;18.034;2023-03-31T00:28:49;100118.25;;;1.12;59.76
51715;BME280;39115;59.332;18.034;2023-03-31T00:31:10;100121.91;;;1.09;59.98
51715;BME280;39115;59.332;18.034;2023-03-31T00:33:30;100121.13;;;1.07;60.03
51715;BME280;39115;59.332;18.034;2023-03-31T00:35:51;100114.47;;;1.01;59.99
51715;BME280;39115;59.332;18.034;2023-03-31T00:38:11;100108.38;;;1.01;60.37
51715;BME280;39115;59.332;18.034;2023-03-31T00:40:33;100105.78;;;1.01;60.14
51715;BME280;39115;59.332;18.034;2023-03-31T00:42:54;100110.09;;;1.02;60.14
51715;BME280;39115;59.332;18.034;2023-03-31T00:47:35;100107.56;;;1.00;60.50
51715;BME280;39115;59.332;18.034;2023-03-31T00:49:56;100108.38;;;1.01;60.25
51715;BME280;39115;59.332;18.034;2023-03-31T00:52:34;100106.53;;;1.03;60.51
51715;BME280;39115;59.332;18.034;2023-03-31T00:55:08;100106.44;;;1.04;60.34
51715;BME280;39115;59.332;18.034;2023-03-31T00:57:34;100112.72;;;1.02;60.05
51715;BME280;39115;59.332;18.034;2023-03-31T01:00:02;100102.47;;;0.97;60.38
51715;BME280;39115;59.332;18.034;2023-03-31T01:02:36;100105.94;;;0.98;60.23
51715;BME280;39115;59.332;18.034;2023-03-31T01:05:00;100099.97;;;0.96;60.04
51715;BME280;39115;59.332;18.034;2023-03-31T01:07:27;100098.38;;;0.93;60.16
51715;BME280;39115;59.332;18.034;2023-03-31T01:09:52;100089.84;;;0.89;60.20
51715;BME280;39115;59.332;18.034;2023-03-31T01:12:17;100089.13;;;0.86;60.56
51715;BME280;39115;59.332;18.034;2023-03-31T01:14:38;100090.16;;;0.83;60.23
51715;BME280;39115;59.332;18.034;2023-03-31T01:16:58;100078.84;;;0.83;60.58
51715;BME280;39115;59.332;18.034;2023-03-31T01:27:52;100084.34;;;0.78;60.80
51715;BME280;39115;59.332;18.034;2023-03-31T01:40:20;100075.00;;;0.74;60.29
51715;BME280;39115;59.332;18.034;2023-03-31T01:42:57;100075.72;;;0.76;60.70
51715;BME280;39115;59.332;18.034;2023-03-31T01:45:47;100066.94;;;0.77;60.29
51715;BME280;39115;59.332;18.034;2023-03-31T01:48:18;100063.41;;;0.78;60.52
51715;BME280;39115;59.332;18.034;2023-03-31T01:55:49;100065.34;;;0.74;60.45
51715;BME280;39115;59.332;18.034;2023-03-31T01:58:22;100062.06;;;0.71;60.42
51715;BME280;39115;59.332;18.034;2023-03-31T02:00:57;100061.41;;;0.67;60.70
51715;BME280;39115;59.332;18.034;2023-03-31T02:03:22;100058.09;;;0.63;60.79
51715;BME280;39115;59.332;18.034;2023-03-31T02:05:47;100065.38;;;0.58;60.45
51715;BME280;39115;59.332;18.034;2023-03-31T02:08:14;100066.50;;;0.54;60.73
51715;BME280;39115;59.332;18.034;2023-03-31T02:10:36;100055.44;;;0.49;60.39
51715;BME280;39115;59.332;18.034;2023-03-31T02:12:59;100060.75;;;0.47;60.48
51715;BME280;39115;59.332;18.034;2023-03-31T02:15:26;100062.63;;;0.45;60.73
51715;BME280;39115;59.332;18.034;2023-03-31T02:17:49;100056.53;;;0.45;60.69
51715;BME280;39115;59.332;18.034;2023-03-31T02:20:13;100054.84;;;0.44;60.56
51715;BME280;39115;59.332;18.034;2023-03-31T02:22:37;100057.53;;;0.42;60.90
51715;BME280;39115;59.332;18.034;2023-03-31T02:25:00;100059.25;;;0.43;60.52
51715;BME280;39115;59.332;18.034;2023-03-31T02:27:24;100052.97;;;0.46;60.57
51715;BME280;39115;59.332;18.034;2023-03-31T02:29:46;100055.59;;;0.46;60.66
51715;BME280;39115;59.332;18.034;2023-03-31T02:32:15;100045.22;;;0.44;60.49
51715;BME280;39115;59.332;18.034;2023-03-31T02:34:40;100056.47;;;0.46;60.36
51715;BME280;39115;59.332;18.034;2023-03-31T02:37:01;100061.84;;;0.43;60.45
51715;BME280;39115;59.332;18.034;2023-03-31T02:39:28;100061.00;;;0.43;60.76
51715;BME280;39115;59.332;18.034;2023-03-31T02:41:50;100060.25;;;0.41;60.80
51715;BME280;39115;59.332;18.034;2023-03-31T02:44:11;100063.72;;;0.41;60.80
51715;BME280;39115;59.332;18.034;2023-03-31T02:46:31;100057.72;;;0.39;60.84
51715;BME280;39115;59.332;18.034;2023-03-31T02:48:54;100054.41;;;0.36;60.58
51715;BME280;39115;59.332;18.034;2023-03-31T02:56:24;100058.41;;;0.27;60.79
51715;BME280;39115;59.332;18.034;2023-03-31T03:01:30;100067.19;;;0.26;60.71
51715;BME280;39115;59.332;18.034;2023-03-31T03:06:51;100061.13;;;0.25;60.50
51715;BME280;39115;59.332;18.034;2023-03-31T03:09:26;100059.44;;;0.24;61.12
51715;BME280;39115;59.332;18.034;2023-03-31T03:17:39;100051.81;;;0.20;60.65
51715;BME280;39115;59.332;18.034;2023-03-31T03:20:03;100051.91;;;0.18;60.73
51715;BME280;39115;59.332;18.034;2023-03-31T03:22:27;100051.00;;;0.19;60.86
51715;BME280;39115;59.332;18.034;2023-03-31T03:24:48;100048.44;;;0.18;60.97
51715;BME280;39115;59.332;18.034;2023-03-31T03:27:08;100051.91;;;0.18;61.30
51715;BME280;39115;59.332;18.034;2023-03-31T03:29:29;100051.72;;;0.21;60.92
51715;BME280;39115;59.332;18.034;2023-03-31T03:31:49;100056.91;;;0.23;61.10
51715;BME280;39115;59.332;18.034;2023-03-31T03:34:10;100049.97;;;0.22;60.94
51715;BME280;39115;59.332;18.034;2023-03-31T03:36:31;100049.13;;;0.21;60.90
51715;BME280;39115;59.332;18.034;2023-03-31T03:38:51;100051.81;;;0.20;61.09
51715;BME280;39115;59.332;18.034;2023-03-31T03:41:12;100049.31;;;0.18;60.74
51715;BME280;39115;59.332;18.034;2023-03-31T03:43:33;100045.81;;;0.18;60.74
51715;BME280;39115;59.332;18.034;2023-03-31T03:45:53;100049.31;;;0.18;60.81
51715;BME280;39115;59.332;18.034;2023-03-31T03:48:14;100049.22;;;0.20;61.01
51715;BME280;39115;59.332;18.034;2023-03-31T03:50:36;100048.38;;;0.19;61.14
51715;BME280;39115;59.332;18.034;2023-03-31T03:52:56;100045.00;;;0.17;60.97
51715;BME280;39115;59.332;18.034;2023-03-31T03:55:17;100049.47;;;0.15;60.91
51715;BME280;39115;59.332;18.034;2023-03-31T03:57:37;100046.94;;;0.13;60.73
51715;BME280;39115;59.332;18.034;2023-03-31T03:59:58;100050.38;;;0.14;61.08
51715;BME280;39115;59.332;18.034;2023-03-31T04:02:18;100047.00;;;0.12;60.90
51715;BME280;39115;59.332;18.034;2023-03-31T04:04:39;100047.09;;;0.10;60.98
51715;BME280;39115;59.332;18.034;2023-03-31T04:06:59;100049.81;;;0.09;61.23
51715;BME280;39115;59.332;18.034;2023-03-31T04:09:20;100044.72;;;0.06;61.05
51715;BME280;39115;59.332;18.034;2023-03-31T04:11:40;100048.28;;;0.05;61.09
51715;BME280;39115;59.332;18.034;2023-03-31T04:14:01;100042.19;;;0.04;61.16
51715;BME280;39115;59.332;18.034;2023-03-31T04:16:22;100041.38;;;0.04;61.28
51715;BME280;39115;59.332;18.034;2023-03-31T04:18:44;100040.34;;;0.06;61.06
51715;BME280;39115;59.332;18.034;2023-03-31T04:21:04;100037.56;;;0.09;61.19
51715;BME280;39115;59.332;18.034;2023-03-31T04:23:25;100042.53;;;0.14;60.93
51715;BME280;39115;59.332;18.034;2023-03-31T04:25:50;100044.31;;;0.13;61.22
51715;BME280;39115;59.332;18.034;2023-03-31T04:28:10;100046.94;;;0.13;61.12
51715;BME280;39115;59.332;18.034;2023-03-31T04:30:33;100048.63;;;0.14;61.02
51715;BME280;39115;59.332;18.034;2023-03-31T04:33:00;100046.75;;;0.17;61.11
51715;BME280;39115;59.332;18.034;2023-03-31T04:35:23;100044.22;;;0.15;61.05
51715;BME280;39115;59.332;18.034;2023-03-31T04:37:44;100046.94;;;0.13;60.93
51715;BME280;39115;59.332;18.034;2023-03-31T04:40:05;100037.22;;;0.15;60.97
51715;BME280;39115;59.332;18.034;2023-03-31T04:42:29;100038.91;;;0.17;60.82
51715;BME280;39115;59.332;18.034;2023-03-31T04:44:49;100034.63;;;0.15;60.83
51715;BME280;39115;59.332;18.034;2023-03-31T04:47:10;100036.22;;;0.18;60.76
51715;BME280;39115;59.332;18.034;2023-03-31T04:49:30;100031.72;;;0.20;60.98
51715;BME280;39115;59.332;18.034;2023-03-31T04:51:52;100039.56;;;0.20;61.14
51715;BME280;39115;59.332;18.034;2023-03-31T04:54:13;100046.44;;;0.23;61.03
51715;BME280;39115;59.332;18.034;2023-03-31T04:56:33;100044.47;;;0.26;60.89
51715;BME280;39115;59.332;18.034;2023-03-31T04:58:54;100046.00;;;0.30;60.63
51715;BME280;39115;59.332;18.034;2023-03-31T05:01:14;100036.38;;;0.31;60.71
51715;BME280;39115;59.332;18.034;2023-03-31T05:03:37;100045.16;;;0.30;60.87
51715;BME280;39115;59.332;18.034;2023-03-31T05:05:57;100048.44;;;0.34;60.76
51715;BME280;39115;59.332;18.034;2023-03-31T05:08:18;100057.91;;;0.36;60.99
51715;BME280;39115;59.332;18.034;2023-03-31T05:10:38;100049.13;;;0.37;60.64
51715;BME280;39115;59.332;18.034;2023-03-31T05:12:59;100053.50;;;0.37;60.71
51715;BME280;39115;59.332;18.034;2023-03-31T05:15:20;100051.75;;;0.37;60.79
51715;BME280;39115;59.332;18.034;2023-03-31T05:17:40;100053.44;;;0.38;61.10
51715;BME280;39115;59.332;18.034;2023-03-31T05:20:01;100051.75;;;0.37;60.88
51715;BME280;39115;59.332;18.034;2023-03-31T05:22:26;100047.41;;;0.36;61.00
51715;BME280;39115;59.332;18.034;2023-03-31T05:24:47;100045.72;;;0.35;60.76
51715;BME280;39115;59.332;18.034;2023-03-31T05:27:07;100056.31;;;0.34;60.85
51715;BME280;39115;59.332;18.034;2023-03-31T05:29:28;100045.72;;;0.35;61.05
51715;BME280;39115;59.332;18.034;2023-03-31T05:31:49;100047.31;;;0.38;61.26
51715;BME280;39115;59.332;18.034;2023-03-31T05:34:10;100050.63;;;0.41;60.98
51715;BME280;39115;59.332;18.034;2023-03-31T05:36:30;100045.22;;;0.44;60.80
51715;BME280;39115;59.332;18.034;2023-03-31T05:38:51;100048.66;;;0.45;60.96
51715;BME280;39115;59.332;18.034;2023-03-31T05:41:12;100048.41;;;0.50;60.98
51715;BME280;39115;59.332;18.034;2023-03-31T05:43:32;100046.56;;;0.52;60.99
51715;BME280;39115;59.332;18.034;2023-03-31T05:45:52;100048.91;;;0.56;60.75
51715;BME280;39115;59.332;18.034;2023-03-31T05:48:13;100046.28;;;0.56;60.96
51715;BME280;39115;59.332;18.034;2023-03-31T05:50:33;100047.13;;;0.57;60.69
51715;BME280;39115;59.332;18.034;2023-03-31T05:52:55;100043.84;;;0.53;60.76
51715;BME280;39115;59.332;18.034;2023-03-31T05:55:17;100050.78;;;0.54;60.91
51715;BME280;39115;59.332;18.034;2023-03-31T05:57:38;100051.69;;;0.53;60.85
51715;BME280;39115;59.332;18.034;2023-03-31T05:59:58;100056.09;;;0.53;60.91
51715;BME280;39115;59.332;18.034;2023-03-31T06:02:19;100058.78;;;0.51;60.97
51715;BME280;39115;59.332;18.034;2023-03-31T06:04:39;100057.03;;;0.52;60.79
51715;BME280;39115;59.332;18.034;2023-03-31T06:07:00;100056.84;;;0.55;60.88
51715;BME280;39115;59.332;18.034;2023-03-31T06:09:20;100061.25;;;0.54;61.02
51715;BME280;39115;59.332;18.034;2023-03-31T06:11:41;100060.47;;;0.52;60.86
51715;BME280;39115;59.332;18.034;2023-03-31T06:14:01;100062.28;;;0.52;61.04
51715;BME280;39115;59.332;18.034;2023-03-31T06:16:22;100056.09;;;0.53;61.24
51715;BME280;39115;59.332;18.034;2023-03-31T06:18:43;100050.78;;;0.54;60.83
51715;BME280;39115;59.332;18.034;2023-03-31T06:21:04;100054.97;;;0.57;60.95
51715;BME280;39115;59.332;18.034;2023-03-31T06:23:25;100060.22;;;0.57;61.29
51715;BME280;39115;59.332;18.034;2023-03-31T06:25:46;100062.59;;;0.61;61.11
51715;BME280;39115;59.332;18.034;2023-03-31T06:28:07;100065.03;;;0.65;60.71
51715;BME280;39115;59.332;18.034;2023-03-31T06:30:28;100057.84;;;0.68;60.77
51715;BME280;39115;59.332;18.034;2023-03-31T06:32:48;100053.19;;;0.73;60.74
51715;BME280;39115;59.332;18.034;2023-03-31T06:35:09;100061.69;;;0.77;60.64
51715;BME280;39115;59.332;18.034;2023-03-31T06:37:29;100059.66;;;0.82;60.75
51715;BME280;39115;59.332;18.034;2023-03-31T06:39:50;100063.63;;;0.89;60.58
51715;BME280;39115;59.332;18.034;2023-03-31T06:42:11;100064.00;;;0.98;60.90
51715;BME280;39115;59.332;18.034;2023-03-31T06:44:31;100067.13;;;1.04;60.54
51715;BME280;39115;59.332;18.034;2023-03-31T06:46:52;100069.19;;;1.14;60.39
51715;BME280;39115;59.332;18.034;2023-03-31T06:49:12;100070.69;;;1.18;60.66
51715;BME280;39115;59.332;18.034;2023-03-31T06:51:33;100063.69;;;1.18;60.24
51715;BME280;39115;59.332;18.034;2023-03-31T06:53:53;100077.56;;;1.20;60.26
51715;BME280;39115;59.332;18.034;2023-03-31T06:56:14;100069.59;;;1.22;60.20
51715;BME280;39115;59.332;18.034;2023-03-31T06:58:34;100077.25;;;1.25;60.26
51715;BME280;39115;59.332;18.034;2023-03-31T07:00:55;100069.97;;;1.30;60.17
51715;BME280;39115;59.332;18.034;2023-03-31T07:03:15;100071.56;;;1.33;60.19
51715;BME280;39115;59.332;18.034;2023-03-31T07:05:37;100073.00;;;1.38;60.30
51715;BME280;39115;59.332;18.034;2023-03-31T07:07:58;100069.34;;;1.41;60.33
51715;BME280;39115;59.332;18.034;2023-03-31T07:10:19;100068.31;;;1.44;60.06
51715;BME280;39115;59.332;18.034;2023-03-31T07:12:40;100072.63;;;1.45;60.08
51715;BME280;39115;59.332;18.034;2023-03-31T07:15:00;100080.47;;;1.45;60.21
51715;BME280;39115;59.332;18.034;2023-03-31T07:17:21;100085.84;;;1.43;60.08
51715;BME280;39115;59.332;18.034;2023-03-31T07:19:44;100085.84;;;1.43;60.29
51715;BME280;39115;59.332;18.034;2023-03-31T07:22:07;100079.63;;;1.44;60.18
51715;BME280;39115;59.332;18.034;2023-03-31T07:24:28;100085.63;;;1.46;60.22
51715;BME280;39115;59.332;18.034;2023-03-31T07:26:49;100085.47;;;1.49;60.23
51715;BME280;39115;59.332;18.034;2023-03-31T07:29:10;100087.16;;;1.50;59.94
51715;BME280;39115;59.332;18.034;2023-03-31T07:31:30;100084.25;;;1.55;59.88
51715;BME280;39115;59.332;18.034;2023-03-31T07:33:51;100082.19;;;1.60;59.72
51715;BME280;39115;59.332;18.034;2023-03-31T07:36:12;100088.75;;;1.67;59.67
51715;BME280;39115;59.332;18.034;2023-03-31T07:38:33;100092.78;;;1.73;59.69
51715;BME280;39115;59.332;18.034;2023-03-31T07:40:53;100097.47;;;1.82;59.75
51715;BME280;39115;59.332;18.034;2023-03-31T07:43:14;100095.09;;;1.92;59.40
51715;BME280;39115;59.332;18.034;2023-03-31T07:45:34;100086.47;;;2.04;59.23
51715;BME280;39115;59.332;18.034;2023-03-31T07:47:55;100094.53;;;2.16;59.25
51715;BME280;39115;59.332;18.034;2023-03-31T07:50:16;100089.34;;;2.29;58.71
51715;BME280;39115;59.332;18.034;2023-03-31T07:52:37;100097.25;;;2.42;58.63
51715;BME280;39115;59.332;18.034;2023-03-31T07:54:57;100100.69;;;2.57;58.56
51715;BME280;39115;59.332;18.034;2023-03-31T07:57:18;100090.34;;;2.68;58.39
51715;BME280;39115;59.332;18.034;2023-03-31T07:59:39;100093.63;;;2.72;58.04
51715;BME280;39115;59.332;18.034;2023-03-31T08:01:59;100095.19;;;2.74;57.87
51715;BME280;39115;59.332;18.034;2023-03-31T08:04:20;100099.22;;;2.80;57.92
51715;BME280;39115;59.332;18.034;2023-03-31T08:06:40;100099.00;;;2.83;57.77
51715;BME280;39115;59.332;18.034;2023-03-31T08:09:02;100101.31;;;2.88;57.63
51715;BME280;39115;59.332;18.034;2023-03-31T08:11:25;100106.28;;;2.92;57.56
51715;BME280;39115;59.332;18.034;2023-03-31T08:13:46;100109.38;;;2.99;57.41
51715;BME280;39115;59.332;18.034;2023-03-31T08:16:07;100114.28;;;3.04;57.18
51715;BME280;39115;59.332;18.034;2023-03-31T08:18:28;100109.78;;;3.06;57.17
51715;BME280;39115;59.332;18.034;2023-03-31T08:20:48;100120.28;;;3.06;57.06
51715;BME280;39115;59.332;18.034;2023-03-31T08:23:09;100108.09;;;3.05;57.01
51715;BME280;39115;59.332;18.034;2023-03-31T08:25:31;100106.66;;;3.13;56.74
51715;BME280;39115;59.332;18.034;2023-03-31T08:27:51;100100.56;;;3.26;56.49
51715;BME280;39115;59.332;18.034;2023-03-31T08:30:12;100111.94;;;3.39;56.54
51715;BME280;39115;59.332;18.034;2023-03-31T08:32:33;100115.94;;;3.58;55.96
51715;BME280;39115;59.332;18.034;2023-03-31T08:34:54;100112.38;;;3.72;55.85
51715;BME280;39115;59.332;18.034;2023-03-31T08:37:14;100121.94;;;3.86;55.55
51715;BME280;39115;59.332;18.034;2023-03-31T08:39:35;100110.56;;;3.98;55.56
51715;BME280;39115;59.332;18.034;2023-03-31T08:42:00;100120.97;;;4.00;55.33
51715;BME280;39115;59.332;18.034;2023-03-31T08:46:45;100110.75;;;3.95;55.01
51715;BME280;39115;59.332;18.034;2023-03-31T08:49:12;100109.38;;;4.02;55.45
51715;BME280;39115;59.332;18.034;2023-03-31T08:51:40;100096.63;;;4.09;55.12
51715;BME280;39115;59.332;18.034;2023-03-31T08:54:15;100112.63;;;4.19;54.63
51715;BME280;39115;59.332;18.034;2023-03-31T08:56:40;100100.16;;;4.34;54.53
51715;BME280;39115;59.332;18.034;2023-03-31T08:59:01;100108.75;;;4.36;53.88
51715;BME280;39115;59.332;18.034;2023-03-31T09:17:45;100108.25;;;5.03;52.39
51715;BME280;39115;59.332;18.034;2023-03-31T09:20:20;100104.69;;;5.04;52.73
51715;BME280;39115;59.332;18.034;2023-03-31T09:22:50;100111.59;;;4.94;52.82
51715;BME280;39115;59.332;18.034;2023-03-31T09:25:19;100110.34;;;4.87;52.76
51715;BME280;39115;59.332;18.034;2023-03-31T09:27:42;100113.84;;;4.87;52.75
51715;BME280;39115;59.332;18.034;2023-03-31T09:30:10;100121.44;;;4.92;53.01
51715;BME280;39115;59.332;18.034;2023-03-31T09:32:36;100118.19;;;4.88;52.19
51715;BME280;39115;59.332;18.034;2023-03-31T09:35:21;100126.31;;;4.85;53.04
51715;BME280;39115;59.332;18.034;2023-03-31T09:37:42;100118.50;;;4.84;51.92
51715;BME280;39115;59.332;18.034;2023-03-31T09:40:04;100119.63;;;4.93;51.83
51715;BME280;39115;59.332;18.034;2023-03-31T09:42:30;100120.91;;;4.87;51.77
51715;BME280;39115;59.332;18.034;2023-03-31T09:44:51;100114.16;;;5.07;51.25
51715;BME280;39115;59.332;18.034;2023-03-31T09:47:17;100127.16;;;5.21;51.46
51715;BME280;39115;59.332;18.034;2023-03-31T09:49:44;100123.19;;;5.16;50.92
51715;BME280;39115;59.332;18.034;2023-03-31T09:52:11;100126.78;;;5.15;51.31
51715;BME280;39115;59.332;18.034;2023-03-31T09:54:38;100129.78;;;5.21;51.04
51715;BME280;39115;59.332;18.034;2023-03-31T09:57:00;100126.31;;;5.21;50.69
51715;BME280;39115;59.332;18.034;2023-03-31T09:59:23;100129.16;;;5.42;50.55
51715;BME280;39115;59.332;18.034;2023-03-31T10:01:52;100124.47;;;5.57;50.18
51715;BME280;39115;59.332;18.034;2023-03-31T10:04:27;100119.09;;;5.70;50.35
51715;BME280;39115;59.332;18.034;2023-03-31T10:06:48;100128.13;;;5.79;49.58
51715;BME280;39115;59.332;18.034;2023-03-31T10:09:11;100126.44;;;5.78;50.11
51715;BME280;39115;59.332;18.034;2023-03-31T10:11:32;100127.03;;;5.81;49.99
51715;BME280;39115;59.332;18.034;2023-03-31T10:14:02;100119.84;;;5.95;49.88
51715;BME280;39115;59.332;18.034;2023-03-31T10:18:47;100127.66;;;6.30;48.85
51715;BME280;39115;59.332;18.034;2023-03-31T10:21:22;100129.06;;;6.46;49.01
51715;BME280;39115;59.332;18.034;2023-03-31T10:23:46;100125.19;;;6.50;48.32
51715;BME280;39115;59.332;18.034;2023-03-31T10:26:14;100121.22;;;6.56;48.27
51715;BME280;39115;59.332;18.034;2023-03-31T10:28:36;100127.69;;;6.63;48.35
51715;BME280;39115;59.332;18.034;2023-03-31T10:30:57;100128.78;;;6.72;48.26
51715;BME280;39115;59.332;18.034;2023-03-31T10:33:25;100133.44;;;6.79;48.11
51715;BME280;39115;59.332;18.034;2023-03-31T10:35:47;100128.59;;;6.85;47.99
51715;BME280;39115;59.332;18.034;2023-03-31T10:38:13;100126.09;;;6.83;47.49
51715;BME280;39115;59.332;18.034;2023-03-31T10:40:34;100130.91;;;6.78;47.72
51715;BME280;39115;59.332;18.034;2023-03-31T10:43:08;100126.72;;;6.75;47.99
51715;BME280;39115;59.332;18.034;2023-03-31T10:45:54;100121.31;;;6.65;48.16
51715;BME280;39115;59.332;18.034;2023-03-31T10:48:24;100123.13;;;6.65;47.77
51715;BME280;39115;59.332;18.034;2023-03-31T10:50:46;100123.28;;;6.63;47.51
51715;BME280;39115;59.332;18.034;2023-03-31T10:53:12;100126.59;;;6.65;47.40
51715;BME280;39115;59.332;18.034;2023-03-31T10:55:45;100113.66;;;6.62;47.86
51715;BME280;39115;59.332;18.034;2023-03-31T11:01:03;100116.31;;;6.51;47.64
51715;BME280;39115;59.332;18.034;2023-03-31T11:16:14;100128.44;;;6.65;47.15
51715;BME280;39115;59.332;18.034;2023-03-31T11:21:52;100117.56;;;6.79;47.44
51715;BME280;39115;59.332;18.034;2023-03-31T11:29:44;100111.38;;;6.58;46.84
51715;BME280;39115;59.332;18.034;2023-03-31T11:40:46;100114.56;;;6.73;47.05
51715;BME280;39115;59.332;18.034;2023-03-31T11:43:11;100116.38;;;6.72;46.36
51715;BME280;39115;59.332;18.034;2023-03-31T11:45:38;100120.84;;;6.72;46.20
51715;BME280;39115;59.332;18.034;2023-03-31T11:48:04;100125.53;;;6.68;46.14
51715;BME280;39115;59.332;18.034;2023-03-31T11:50:30;100128.28;;;6.67;46.27
51715;BME280;39115;59.332;18.034;2023-03-31T11:52:57;100114.09;;;6.68;46.07
51715;BME280;39115;59.332;18.034;2023-03-31T11:55:21;100122.63;;;6.71;46.37
51715;BME280;39115;59.332;18.034;2023-03-31T12:00:29;100118.31;;;6.70;46.48
51715;BME280;39115;59.332;18.034;2023-03-31T12:03:09;100120.63;;;6.63;46.71
51715;BME280;39115;59.332;18.034;2023-03-31T12:05:36;100113.94;;;6.48;46.25
51715;BME280;39115;59.332;18.034;2023-03-31T12:10:38;100112.47;;;6.44;46.08
51715;BME280;39115;59.332;18.034;2023-03-31T12:13:25;100114.25;;;6.55;46.46
51715;BME280;39115;59.332;18.034;2023-03-31T12:15:59;100116.28;;;6.62;46.00
51715;BME280;39115;59.332;18.034;2023-03-31T12:18:24;100110.75;;;6.65;46.16
51715;BME280;39115;59.332;18.034;2023-03-31T12:20:58;100105.66;;;6.74;46.07
51715;BME280;39115;59.332;18.034;2023-03-31T12:23:23;100111.16;;;6.82;45.82
51715;BME280;39115;59.332;18.034;2023-03-31T12:26:01;100110.22;;;6.83;46.01
51715;BME280;39115;59.332;18.034;2023-03-31T12:28:26;100108.53;;;6.82;45.54
51715;BME280;39115;59.332;18.034;2023-03-31T12:30:49;100110.56;;;6.90;45.82
51715;BME280;39115;59.332;18.034;2023-03-31T12:33:17;100111.13;;;6.93;45.92
51715;BME280;39115;59.332;18.034;2023-03-31T12:57:29;100093.31;;;6.63;44.99
51715;BME280;39115;59.332;18.034;2023-03-31T13:02:36;100103.72;;;6.87;44.79
51715;BME280;39115;59.332;18.034;2023-03-31T13:04:56;100097.63;;;6.96;44.70
51715;BME280;39115;59.332;18.034;2023-03-31T13:09:48;100102.19;;;7.06;44.44
51715;BME280;39115;59.332;18.034;2023-03-31T13:12:18;100102.66;;;7.11;44.74
51715;BME280;39115;59.332;18.034;2023-03-31T13:14:42;100100.59;;;7.15;44.24
51715;BME280;39115;59.332;18.034;2023-03-31T13:17:28;100100.19;;;7.19;44.21
51715;BME280;39115;59.332;18.034;2023-03-31T13:19:50;100098.81;;;7.25;43.93
51715;BME280;39115;59.332;18.034;2023-03-31T13:22:31;100099.16;;;7.32;43.97
51715;BME280;39115;59.332;18.034;2023-03-31T13:24:52;100109.63;;;7.33;43.53
51715;BME280;39115;59.332;18.034;2023-03-31T13:27:29;100109.09;;;7.39;44.04
51715;BME280;39115;59.332;18.034;2023-03-31T13:29:51;100120.53;;;7.40;43.62
51715;BME280;39115;59.332;18.034;2023-03-31T13:32:23;100107.25;;;7.30;43.78
51715;BME280;39115;59.332;18.034;2023-03-31T13:42:45;100110.78;;;7.40;43.16
51715;BME280;39115;59.332;18.034;2023-03-31T13:50:35;100113.31;;;7.21;42.49
51715;BME280;39115;59.332;18.034;2023-03-31T13:58:37;100118.69;;;7.19;42.22
51715;BME280;39115;59.332;18.034;2023-03-31T14:06:55;100111.53;;;7.52;42.36
51715;BME280;39115;59.332;18.034;2023-03-31T14:09:34;100119.28;;;7.65;42.11
51715;BME280;39115;59.332;18.034;2023-03-31T14:11:58;100117.50;;;7.66;41.22
51715;BME280;39115;59.332;18.034;2023-03-31T14:14:19;100115.81;;;7.65;41.74
51715;BME280;39115;59.332;18.034;2023-03-31T14:22:18;100116.19;;;7.60;41.31
51715;BME280;39115;59.332;18.034;2023-03-31T14:27:26;100118.13;;;7.58;41.24
51715;BME280;39115;59.332;18.034;2023-03-31T14:32:55;100125.44;;;7.66;40.70
51715;BME280;39115;59.332;18.034;2023-03-31T14:37:43;100115.84;;;8.05;40.67
51715;BME280;39115;59.332;18.034;2023-03-31T14:40:05;100116.78;;;8.45;40.33
51715;BME280;39115;59.332;18.034;2023-03-31T14:42:39;100118.97;;;8.91;40.94
51715;BME280;39115;59.332;18.034;2023-03-31T14:45:05;100123.03;;;9.34;40.30
51715;BME280;39115;59.332;18.034;2023-03-31T14:47:29;100125.75;;;9.72;40.51
51715;BME280;39115;59.332;18.034;2023-03-31T14:50:01;100131.75;;;10.49;40.98
51715;BME280;39115;59.332;18.034;2023-03-31T14:52:22;100131.94;;;11.02;39.52
51715;BME280;39115;59.332;18.034;2023-03-31T14:54:44;100126.97;;;11.69;38.16
51715;BME280;39115;59.332;18.034;2023-03-31T14:57:06;100127.31;;;12.01;37.22
51715;BME280;39115;59.332;18.034;2023-03-31T14:59:29;100129.97;;;13.20;36.44
51715;BME280;39115;59.332;18.034;2023-03-31T15:01:52;100130.44;;;14.92;35.00
51715;BME280;39115;59.332;18.034;2023-03-31T15:04:16;100138.31;;;16.60;33.07
51715;BME280;39115;59.332;18.034;2023-03-31T15:06:45;100135.09;;;18.22;31.74
51715;BME280;39115;59.332;18.034;2023-03-31T15:09:47;100139.75;;;19.70;29.77
51715;BME280;39115;59.332;18.034;2023-03-31T15:12:01;100132.19;;;21.54;27.88
51715;BME280;39115;59.332;18.034;2023-03-31T15:14:23;100134.44;;;23.18;25.97
51715;BME280;39115;59.332;18.034;2023-03-31T15:16:48;100135.00;;;24.97;24.19
51715;BME280;39115;59.332;18.034;2023-03-31T15:19:30;100124.03;;;26.65;23.87